createdAt,value
2018-12-13T00:00:06.212Z,1.83
2018-12-13T00:02:36.767Z,1.70
2018-12-13T00:05:08.082Z,1.98
2018-12-13T00:07:37.334Z,1.89
2018-12-13T00:10:06.792Z,1.48
2018-12-13T00:12:36.336Z,1.54
2018-12-13T00:15:06.130Z,1.53
2018-12-13T00:17:35.413Z,1.21
2018-12-13T00:20:05.134Z,1.43
2018-12-13T00:22:34.523Z,1.13
2018-12-13T00:25:04.203Z,1.21
2018-12-13T00:27:33.599Z,1.25
2018-12-13T00:30:03.022Z,1.55
2018-12-13T00:32:32.480Z,1.56
2018-12-13T00:35:02.207Z,1.23
2018-12-13T00:37:31.468Z,1.31
2018-12-13T00:40:00.662Z,1.55
2018-12-13T00:42:30.124Z,1.15
2018-12-13T00:44:59.780Z,1.06
2018-12-13T00:47:29.205Z,0.86
2018-12-13T00:49:58.505Z,1.11
2018-12-13T00:52:28.134Z,1.09
2018-12-13T00:54:57.724Z,0.77
2018-12-13T00:57:27.441Z,0.38
2018-12-13T00:59:56.840Z,0.46
2018-12-13T01:02:26.473Z,0.60
2018-12-13T01:04:56.095Z,0.53
2018-12-13T01:07:25.352Z,0.45
2018-12-13T01:09:54.891Z,0.49
2018-12-13T01:12:24.111Z,0.47
2018-12-13T01:14:53.570Z,0.49
2018-12-13T01:17:23.020Z,0.34
2018-12-13T01:19:52.350Z,0.47
2018-12-13T01:22:21.892Z,0.33
2018-12-13T01:24:51.315Z,0.27
2018-12-13T01:27:20.845Z,0.12
2018-12-13T01:29:50.252Z,0.12
2018-12-13T01:32:19.712Z,0.15
2018-12-13T01:34:49.287Z,0.17
2018-12-13T01:37:19.000Z,-0.02
2018-12-13T01:39:48.779Z,-0.02
2018-12-13T01:42:18.167Z,-0.03
2018-12-13T01:44:47.843Z,-0.09
2018-12-13T01:47:17.531Z,-0.19
2018-12-13T01:49:46.859Z,-0.28
2018-12-13T01:52:16.310Z,-0.33
2018-12-13T01:54:46.914Z,-0.17
2018-12-13T01:57:16.700Z,-0.25
2018-12-13T01:59:46.298Z,-0.42
2018-12-13T02:02:15.629Z,-0.38
2018-12-13T02:04:45.224Z,-0.51
2018-12-13T02:07:15.060Z,-0.66
2018-12-13T02:09:44.643Z,-0.73
2018-12-13T02:12:14.064Z,-0.74
2018-12-13T02:14:43.755Z,-1.02
2018-12-13T02:17:13.161Z,-1.09
2018-12-13T02:19:42.647Z,-0.93
2018-12-13T02:22:11.949Z,-1.17
2018-12-13T02:24:41.500Z,-1.26
2018-12-13T02:27:10.888Z,-1.08
2018-12-13T02:29:40.304Z,-1.23
2018-12-13T02:32:09.683Z,-1.29
2018-12-13T02:34:39.347Z,-1.33
2018-12-13T02:37:09.083Z,-1.32
2018-12-13T02:39:38.564Z,-1.30
2018-12-13T02:42:08.072Z,-1.31
2018-12-13T02:44:37.460Z,-1.30
2018-12-13T02:47:06.725Z,-1.28
2018-12-13T02:49:36.313Z,-1.10
2018-12-13T02:52:05.862Z,-1.01
2018-12-13T02:54:35.233Z,-1.04
2018-12-13T02:57:04.491Z,-0.90
2018-12-13T02:59:34.227Z,-0.85
2018-12-13T03:02:03.816Z,-1.03
2018-12-13T03:04:33.164Z,-1.17
2018-12-13T03:07:03.320Z,-1.31
2018-12-13T03:09:33.017Z,-1.30
2018-12-13T03:12:02.636Z,-1.28
2018-12-13T03:14:31.908Z,-1.28
2018-12-13T03:17:01.254Z,-1.56
2018-12-13T03:19:30.788Z,-1.54
2018-12-13T03:22:00.333Z,-1.57
2018-12-13T03:24:31.087Z,-1.56
2018-12-13T03:27:00.869Z,-1.35
2018-12-13T03:29:30.343Z,-0.93
2018-12-13T03:31:59.814Z,-1.00
2018-12-13T03:34:29.184Z,-0.87
2018-12-13T03:36:59.078Z,-0.81
2018-12-13T03:39:28.671Z,-0.91
2018-12-13T03:41:58.483Z,-0.90
2018-12-13T03:44:27.900Z,-0.79
2018-12-13T03:46:57.367Z,-0.99
2018-12-13T03:49:26.735Z,-1.01
2018-12-13T03:51:56.127Z,-1.19
2018-12-13T03:54:25.819Z,-1.40
2018-12-13T03:56:55.530Z,-1.26
2018-12-13T03:59:25.142Z,-1.13
2018-12-13T04:01:55.346Z,-1.11
2018-12-13T04:04:24.904Z,-1.53
2018-12-13T04:06:54.569Z,-1.02
2018-12-13T04:09:24.483Z,-1.15
2018-12-13T04:11:53.894Z,-1.08
2018-12-13T04:14:23.527Z,-0.87
2018-12-13T04:16:52.862Z,-1.04
2018-12-13T04:19:22.165Z,-0.72
2018-12-13T04:21:51.742Z,-0.54
2018-12-13T04:24:21.335Z,-0.64
2018-12-13T04:26:50.891Z,-0.64
2018-12-13T04:29:20.570Z,-0.46
2018-12-13T04:31:50.265Z,-0.58
2018-12-13T04:34:19.759Z,-0.90
2018-12-13T04:36:49.521Z,-1.42
2018-12-13T04:39:19.105Z,-0.83
2018-12-13T04:41:48.736Z,-0.95
2018-12-13T04:44:18.260Z,-0.76
2018-12-13T04:46:48.499Z,-0.82
2018-12-13T04:49:17.784Z,-0.88
2018-12-13T04:51:47.027Z,-1.03
2018-12-13T04:54:16.922Z,-0.98
2018-12-13T04:56:46.125Z,-1.15
2018-12-13T04:59:15.931Z,-1.31
2018-12-13T05:01:45.896Z,-1.36
2018-12-13T05:04:15.355Z,-1.41
2018-12-13T05:06:45.005Z,-1.48
2018-12-13T05:09:14.619Z,-1.60
2018-12-13T05:11:43.864Z,-1.68
2018-12-13T05:14:13.170Z,-1.76
2018-12-13T05:16:42.655Z,-1.86
2018-12-13T05:19:12.004Z,-1.87
2018-12-13T05:21:41.606Z,-1.97
2018-12-13T05:24:11.005Z,-2.01
2018-12-13T05:26:40.734Z,-2.03
2018-12-13T05:29:10.033Z,-2.08
2018-12-13T05:31:39.604Z,-2.05
2018-12-13T05:34:09.441Z,-2.13
2018-12-13T05:36:38.948Z,-2.14
2018-12-13T05:39:09.229Z,-2.26
2018-12-13T05:41:38.789Z,-2.28
2018-12-13T05:44:08.159Z,-2.48
2018-12-13T05:46:37.525Z,-2.56
2018-12-13T05:49:06.887Z,-2.78
2018-12-13T05:51:36.296Z,-2.68
2018-12-13T05:54:05.930Z,-2.68
2018-12-13T05:56:35.850Z,-2.77
2018-12-13T05:59:06.225Z,-2.74
2018-12-13T06:01:35.965Z,-2.61
2018-12-13T06:04:05.462Z,-2.55
2018-12-13T06:06:35.011Z,-2.53
2018-12-13T06:09:06.340Z,-2.57
2018-12-13T06:11:36.076Z,-2.67
2018-12-13T06:14:05.510Z,-2.65
2018-12-13T06:16:35.520Z,-2.52
2018-12-13T06:19:05.039Z,-2.26
2018-12-13T06:21:37.052Z,-2.37
2018-12-13T06:24:06.406Z,-2.28
2018-12-13T06:26:36.076Z,-2.36
2018-12-13T06:29:05.504Z,-2.46
2018-12-13T06:31:35.022Z,-2.39
2018-12-13T06:34:04.546Z,-2.35
2018-12-13T06:36:34.116Z,-2.25
2018-12-13T06:39:06.022Z,-2.15
2018-12-13T06:41:36.526Z,-2.03
2018-12-13T06:44:06.232Z,-2.17
2018-12-13T06:46:35.600Z,-2.18
2018-12-13T06:49:04.968Z,-2.13
2018-12-13T06:51:34.811Z,-2.04
2018-12-13T06:54:04.314Z,-1.93
2018-12-13T06:56:33.996Z,-1.99
2018-12-13T06:59:03.580Z,-1.93
2018-12-13T07:01:33.003Z,-1.86
2018-12-13T07:04:02.554Z,-1.73
2018-12-13T07:06:32.048Z,-1.54
2018-12-13T07:09:01.402Z,-1.43
2018-12-13T07:11:30.772Z,-1.32
2018-12-13T07:14:00.462Z,-1.10
2018-12-13T07:16:30.222Z,-0.83
2018-12-13T07:19:00.459Z,-0.51
2018-12-13T07:21:30.106Z,-0.47
2018-12-13T07:23:59.713Z,-0.23
2018-12-13T07:26:29.676Z,-0.08
2018-12-13T07:28:59.344Z,0.03
2018-12-13T07:31:29.387Z,0.11
2018-12-13T07:33:58.944Z,0.26
2018-12-13T07:36:28.514Z,0.41
2018-12-13T07:38:58.032Z,0.59
2018-12-13T07:41:28.486Z,0.70
2018-12-13T07:43:58.432Z,0.75
2018-12-13T07:46:27.762Z,0.79
2018-12-13T07:48:57.020Z,0.92
2018-12-13T07:51:26.957Z,1.00
2018-12-13T07:53:56.479Z,1.18
2018-12-13T07:56:26.145Z,1.40
2018-12-13T07:58:56.200Z,1.41
2018-12-13T08:01:25.830Z,1.51
2018-12-13T08:03:55.892Z,1.67
2018-12-13T08:06:25.772Z,1.65
2018-12-13T08:08:55.102Z,1.54
2018-12-13T08:11:24.817Z,1.67
2018-12-13T08:13:54.671Z,1.79
2018-12-13T08:16:24.037Z,1.93
2018-12-13T08:18:55.560Z,1.94
2018-12-13T08:21:26.849Z,1.96
2018-12-13T08:23:56.380Z,1.93
2018-12-13T08:26:25.799Z,2.07
2018-12-13T08:28:55.665Z,2.27
2018-12-13T08:31:24.981Z,2.43
2018-12-13T08:33:54.510Z,2.44
2018-12-13T08:36:25.319Z,2.58
2018-12-13T08:38:54.969Z,2.85
2018-12-13T08:41:24.480Z,2.98
2018-12-13T08:43:54.066Z,3.28
2018-12-13T08:46:23.730Z,3.47
2018-12-13T08:48:53.257Z,4.10
2018-12-13T08:51:22.838Z,4.41
2018-12-13T08:53:52.293Z,4.82
2018-12-13T08:56:21.526Z,5.03
2018-12-13T08:58:50.940Z,5.91
2018-12-13T09:01:20.799Z,6.33
2018-12-13T09:03:50.513Z,6.43
2018-12-13T09:06:20.365Z,6.47
2018-12-13T09:08:50.135Z,6.56
2018-12-13T09:11:19.778Z,6.61
2018-12-13T09:13:49.406Z,6.61
2018-12-13T09:16:19.055Z,6.61
2018-12-13T09:18:48.880Z,6.67
2018-12-13T09:21:18.804Z,6.73
2018-12-13T09:23:48.013Z,6.74
2018-12-13T09:26:17.584Z,6.57
2018-12-13T09:28:47.323Z,6.94
2018-12-13T09:31:16.737Z,6.98
2018-12-13T09:33:47.606Z,6.97
2018-12-13T09:36:17.395Z,7.02
2018-12-13T09:38:47.099Z,6.99
2018-12-13T09:41:16.555Z,7.16
2018-12-13T09:43:46.170Z,7.27
2018-12-13T09:46:15.691Z,7.41
2018-12-13T09:48:45.271Z,7.39
2018-12-13T09:51:14.572Z,7.55
2018-12-13T09:53:44.422Z,7.40
2018-12-13T09:56:13.965Z,7.49
2018-12-13T09:58:43.231Z,7.49
2018-12-13T10:01:13.158Z,7.73
2018-12-13T10:03:42.620Z,7.91
2018-12-13T10:06:12.224Z,8.05
2018-12-13T10:08:46.229Z,8.10
2018-12-13T10:11:13.605Z,8.05
2018-12-13T10:13:43.491Z,7.82
2018-12-13T10:16:13.129Z,7.75
2018-12-13T10:18:42.852Z,7.75
2018-12-13T10:21:12.150Z,7.91
2018-12-13T10:23:41.460Z,8.02
2018-12-13T10:26:11.161Z,8.06
2018-12-13T10:28:41.191Z,8.07
2018-12-13T10:31:10.723Z,8.24
2018-12-13T10:33:41.465Z,8.63
2018-12-13T10:36:11.074Z,8.95
2018-12-13T10:38:40.510Z,9.03
2018-12-13T10:41:10.379Z,8.76
2018-12-13T10:43:39.728Z,9.26
2018-12-13T10:46:09.361Z,9.15
2018-12-13T10:48:38.866Z,9.35
2018-12-13T10:51:08.473Z,9.73
2018-12-13T10:53:38.063Z,9.74
2018-12-13T10:56:07.623Z,9.71
2018-12-13T10:58:36.892Z,9.48
2018-12-13T11:01:11.920Z,9.29
2018-12-13T11:03:41.403Z,9.48
2018-12-13T11:06:10.831Z,9.35
2018-12-13T11:08:40.559Z,9.41
2018-12-13T11:11:09.895Z,9.54
2018-12-13T11:13:39.429Z,9.51
2018-12-13T11:16:09.260Z,9.35
2018-12-13T11:18:38.745Z,8.80
2018-12-13T11:21:08.503Z,8.81
2018-12-13T11:23:37.731Z,8.78
2018-12-13T11:26:07.283Z,8.83
2018-12-13T11:30:45.170Z,8.33
2018-12-13T11:33:14.699Z,8.57
2018-12-13T11:35:44.336Z,8.40
2018-12-13T11:38:14.245Z,8.66
2018-12-13T11:40:43.818Z,8.69
2018-12-13T11:43:13.496Z,8.45
2018-12-13T11:45:43.106Z,8.40
2018-12-13T11:48:12.458Z,8.19
2018-12-13T11:50:42.104Z,8.18
2018-12-13T11:53:11.556Z,8.35
2018-12-13T11:55:41.761Z,8.30
2018-12-13T11:58:12.794Z,8.20
2018-12-13T12:00:42.418Z,8.23
2018-12-13T12:03:12.082Z,8.24
2018-12-13T12:05:42.772Z,8.56
2018-12-13T12:08:12.763Z,8.85
2018-12-13T12:10:42.255Z,9.01
2018-12-13T12:13:11.716Z,9.35
2018-12-13T12:15:41.208Z,9.41
2018-12-13T12:18:10.619Z,9.63
2018-12-13T12:20:40.079Z,10.02
2018-12-13T12:23:09.513Z,10.20
2018-12-13T12:25:39.322Z,10.21
2018-12-13T12:28:08.892Z,10.16
2018-12-13T12:30:38.180Z,10.57
2018-12-13T12:33:07.637Z,10.87
2018-12-13T12:35:37.699Z,11.02
2018-12-13T12:38:07.235Z,10.69
2018-12-13T12:40:36.631Z,10.53
2018-12-13T12:43:06.472Z,10.52
2018-12-13T12:45:36.205Z,10.41
2018-12-13T12:48:06.071Z,10.44
2018-12-13T12:50:35.612Z,10.32
2018-12-13T12:53:05.245Z,10.31
2018-12-13T12:55:34.896Z,10.34
2018-12-13T12:58:04.622Z,10.66
2018-12-13T13:00:34.232Z,10.63
2018-12-13T13:03:04.234Z,10.85
2018-12-13T13:05:33.799Z,10.44
2018-12-13T13:08:03.625Z,10.57
2018-12-13T13:10:32.998Z,11.06
2018-12-13T13:13:02.807Z,10.56
2018-12-13T13:15:32.767Z,10.99
2018-12-13T13:18:02.258Z,10.83
2018-12-13T13:20:31.909Z,9.83
2018-12-13T13:23:01.691Z,9.65
2018-12-13T13:25:32.356Z,10.03
2018-12-13T13:28:02.249Z,10.49
2018-12-13T13:30:31.572Z,10.44
2018-12-13T13:33:00.925Z,10.22
2018-12-13T13:35:30.446Z,10.35
2018-12-13T13:37:59.918Z,10.21
2018-12-13T13:40:29.554Z,10.33
2018-12-13T13:42:59.422Z,10.57
2018-12-13T13:45:28.768Z,10.37
2018-12-13T13:47:58.354Z,10.19
2018-12-13T13:50:28.014Z,10.44
2018-12-13T13:52:57.554Z,10.27
2018-12-13T13:55:27.730Z,9.93
2018-12-13T13:57:57.397Z,10.01
2018-12-13T14:00:26.706Z,10.03
2018-12-13T14:02:56.053Z,9.45
2018-12-13T14:05:25.342Z,9.52
2018-12-13T14:07:54.883Z,8.84
2018-12-13T14:10:24.824Z,8.25
2018-12-13T14:12:54.204Z,8.05
2018-12-13T14:15:23.754Z,7.34
2018-12-13T14:17:53.609Z,7.08
2018-12-13T14:20:23.051Z,6.04
2018-12-13T14:22:53.016Z,6.93
2018-12-13T14:25:22.699Z,6.31
2018-12-13T14:27:52.285Z,6.05
2018-12-13T14:30:21.693Z,6.09
2018-12-13T14:32:51.504Z,6.10
2018-12-13T14:35:20.813Z,5.89
2018-12-13T14:37:50.527Z,6.00
2018-12-13T14:40:20.147Z,5.77
2018-12-13T14:42:51.929Z,5.81
2018-12-13T14:45:21.159Z,5.70
2018-12-13T14:47:50.808Z,5.61
2018-12-13T14:50:20.564Z,5.57
2018-12-13T14:52:50.110Z,5.25
2018-12-13T14:55:19.871Z,5.08
2018-12-13T14:57:49.573Z,4.89
2018-12-13T15:00:18.944Z,4.61
2018-12-13T15:02:48.440Z,4.59
2018-12-13T15:05:17.951Z,4.34
2018-12-13T15:07:47.238Z,3.25
2018-12-13T15:10:17.116Z,2.99
2018-12-13T15:12:46.653Z,3.05
2018-12-13T15:15:15.953Z,2.98
2018-12-13T15:17:45.644Z,3.40
2018-12-13T15:20:15.213Z,3.09
2018-12-13T15:22:44.787Z,3.21
2018-12-13T15:25:14.241Z,3.33
2018-12-13T15:27:43.732Z,3.00
2018-12-13T15:30:13.377Z,2.56
2018-12-13T15:32:42.912Z,2.45
2018-12-13T15:35:12.302Z,2.56
2018-12-13T15:37:42.172Z,2.75
2018-12-13T15:40:11.855Z,2.06
2018-12-13T15:42:41.347Z,1.84
2018-12-13T15:45:11.616Z,2.16
2018-12-13T15:47:41.188Z,2.33
2018-12-13T15:50:11.056Z,2.30
2018-12-13T15:52:40.547Z,2.01
2018-12-13T15:55:10.090Z,1.66
2018-12-13T15:57:39.754Z,1.27
2018-12-13T16:00:09.825Z,0.96
2018-12-13T16:02:41.404Z,1.11
2018-12-13T16:05:10.771Z,0.98
2018-12-13T16:07:40.407Z,0.95
2018-12-13T16:10:09.986Z,0.89
2018-12-13T16:12:39.762Z,0.79
2018-12-13T16:15:09.656Z,0.77
2018-12-13T16:17:39.562Z,0.74
2018-12-13T16:20:09.220Z,0.80
2018-12-13T16:22:38.598Z,0.81
2018-12-13T16:25:08.437Z,0.82
2018-12-13T16:27:37.795Z,0.72
2018-12-13T16:30:08.186Z,0.90
2018-12-13T16:32:37.764Z,0.56
2018-12-13T16:35:07.116Z,0.76
2018-12-13T16:37:36.502Z,0.72
2018-12-13T16:40:10.355Z,0.65
2018-12-13T16:42:38.107Z,0.59
2018-12-13T16:45:08.353Z,0.73
2018-12-13T16:47:37.961Z,0.72
2018-12-13T16:50:08.109Z,0.98
2018-12-13T16:52:38.018Z,0.93
2018-12-13T16:55:07.597Z,1.02
2018-12-13T16:57:37.303Z,1.16
2018-12-13T17:00:07.727Z,1.16
2018-12-13T17:02:37.057Z,1.09
2018-12-13T17:05:06.799Z,0.93
2018-12-13T17:07:37.267Z,0.86
2018-12-13T17:10:08.713Z,0.91
2018-12-13T17:12:38.328Z,0.84
2018-12-13T17:15:08.949Z,0.75
2018-12-13T17:17:38.482Z,0.75
2018-12-13T17:20:08.190Z,0.77
2018-12-13T17:22:38.013Z,0.86
2018-12-13T17:25:07.497Z,1.14
2018-12-13T17:27:37.014Z,1.08
2018-12-13T17:30:08.539Z,1.23
2018-12-13T17:32:37.881Z,1.31
2018-12-13T17:35:07.581Z,1.69
2018-12-13T17:37:37.367Z,1.76
2018-12-13T17:40:07.046Z,1.49
2018-12-13T17:42:37.230Z,1.31
2018-12-13T17:45:07.176Z,1.51
2018-12-13T17:47:36.905Z,1.73
2018-12-13T17:50:06.669Z,1.45
2018-12-13T17:52:36.475Z,1.13
2018-12-13T17:55:06.432Z,1.16
2018-12-13T17:57:35.901Z,1.30
2018-12-13T18:00:06.819Z,1.17
2018-12-13T18:02:36.103Z,1.12
2018-12-13T18:05:05.752Z,1.24
2018-12-13T18:07:35.492Z,1.26
2018-12-13T18:10:05.971Z,1.34
2018-12-13T18:12:35.728Z,1.43
2018-12-13T18:15:05.859Z,1.23
2018-12-13T18:17:35.553Z,1.16
2018-12-13T18:20:05.907Z,1.35
2018-12-13T18:22:35.443Z,1.59
2018-12-13T18:25:05.333Z,1.40
2018-12-13T18:27:35.000Z,1.07
2018-12-13T18:30:04.678Z,1.06
2018-12-13T18:32:34.002Z,1.05
2018-12-13T18:35:03.456Z,1.15
2018-12-13T18:37:32.833Z,1.40
2018-12-13T18:40:02.376Z,1.58
2018-12-13T18:42:31.849Z,1.52
2018-12-13T18:45:01.527Z,1.17
2018-12-13T18:47:31.549Z,1.23
2018-12-13T18:50:00.969Z,1.26
2018-12-13T18:52:30.530Z,1.10
2018-12-13T18:55:00.053Z,1.16
2018-12-13T18:57:29.556Z,1.21
2018-12-13T18:59:58.849Z,1.27
2018-12-13T19:02:28.098Z,1.38
2018-12-13T19:04:57.692Z,1.68
2018-12-13T19:07:27.386Z,1.77
2018-12-13T19:09:57.123Z,1.92
2018-12-13T19:12:26.704Z,2.01
2018-12-13T19:14:56.289Z,2.21
2018-12-13T19:17:25.960Z,2.31
2018-12-13T19:19:55.595Z,2.40
2018-12-13T19:22:26.566Z,2.35
2018-12-13T19:24:55.892Z,2.39
2018-12-13T19:27:25.164Z,2.54
2018-12-13T19:29:54.795Z,2.60
2018-12-13T19:32:24.245Z,2.55
2018-12-13T19:35:00.168Z,2.70
2018-12-13T19:37:25.660Z,2.77
2018-12-13T19:39:55.343Z,2.83
2018-12-13T19:42:24.860Z,2.77
2018-12-13T19:44:54.566Z,2.70
2018-12-13T19:47:24.160Z,2.80
2018-12-13T19:49:53.787Z,2.64
2018-12-13T19:52:23.670Z,2.67
2018-12-13T19:54:53.023Z,2.68
2018-12-13T19:57:22.947Z,2.67
2018-12-13T19:59:52.288Z,2.55
2018-12-13T20:02:21.848Z,2.57
2018-12-13T20:04:51.591Z,2.64
2018-12-13T20:07:21.201Z,2.61
2018-12-13T20:09:50.648Z,2.66
2018-12-13T20:12:20.539Z,2.56
2018-12-13T20:14:50.401Z,2.65
2018-12-13T20:17:20.238Z,2.73
2018-12-13T20:19:49.780Z,2.70
2018-12-13T20:22:19.195Z,2.39
2018-12-13T20:24:48.961Z,0.32
2018-12-13T20:27:18.392Z,2.04
2018-12-13T20:29:47.691Z,1.96
2018-12-13T20:32:17.882Z,1.96
2018-12-13T20:34:47.470Z,2.03
2018-12-13T20:37:17.066Z,2.06
2018-12-13T20:39:46.744Z,2.32
2018-12-13T20:42:16.192Z,2.31
2018-12-13T20:44:45.787Z,2.27
2018-12-13T20:47:15.439Z,2.37
2018-12-13T20:49:44.808Z,2.25
2018-12-13T20:52:14.193Z,2.10
2018-12-13T20:54:43.766Z,2.15
2018-12-13T20:57:13.147Z,2.34
2018-12-13T20:59:42.612Z,2.58
2018-12-13T21:02:12.588Z,2.65
2018-12-13T21:04:41.793Z,2.72
2018-12-13T21:07:16.499Z,2.74
2018-12-13T21:09:45.886Z,2.67
2018-12-13T21:12:15.868Z,2.84
2018-12-13T21:14:45.452Z,2.95
2018-12-13T21:17:15.008Z,3.05
2018-12-13T21:19:44.572Z,3.16
2018-12-13T21:22:14.140Z,3.21
2018-12-13T21:24:43.495Z,3.36
2018-12-13T21:27:12.788Z,3.33
2018-12-13T21:29:42.608Z,3.33
2018-12-13T21:32:12.116Z,3.41
2018-12-13T21:34:41.922Z,3.40
2018-12-13T21:37:11.601Z,3.44
2018-12-13T21:39:41.279Z,3.39
2018-12-13T21:42:10.783Z,3.00
2018-12-13T21:44:40.701Z,3.35
2018-12-13T21:47:10.305Z,3.34
2018-12-13T21:49:39.829Z,3.15
2018-12-13T21:52:09.660Z,3.19
2018-12-13T21:54:39.118Z,3.17
2018-12-13T21:57:08.544Z,3.19
2018-12-13T21:59:38.476Z,3.26
2018-12-13T22:02:07.836Z,3.12
2018-12-13T22:04:37.693Z,3.15
2018-12-13T22:07:07.431Z,3.04
2018-12-13T22:09:36.886Z,3.33
2018-12-13T22:12:06.624Z,3.31
2018-12-13T22:14:36.076Z,3.28
2018-12-13T22:17:05.507Z,3.30
2018-12-13T22:19:35.027Z,3.29
2018-12-13T22:22:04.631Z,3.35
2018-12-13T22:24:34.485Z,3.24
2018-12-13T22:27:03.935Z,3.31
2018-12-13T22:29:33.504Z,3.01
2018-12-13T22:32:04.029Z,2.68
2018-12-13T22:34:33.710Z,2.61
2018-12-13T22:37:03.535Z,2.63
2018-12-13T22:39:33.251Z,2.96
2018-12-13T22:42:02.715Z,2.58
2018-12-13T22:44:32.097Z,2.32
2018-12-13T22:47:01.857Z,2.31
2018-12-13T22:49:31.439Z,2.38
2018-12-13T22:52:01.028Z,2.78
2018-12-13T22:54:30.577Z,2.66
2018-12-13T22:56:59.884Z,2.76
2018-12-13T22:59:29.495Z,3.00
2018-12-13T23:01:58.944Z,2.83
2018-12-13T23:04:28.550Z,2.32
2018-12-13T23:06:58.085Z,2.58
2018-12-13T23:09:27.539Z,2.71
2018-12-13T23:11:57.506Z,2.82
2018-12-13T23:14:27.665Z,2.93
2018-12-13T23:16:57.194Z,2.90
2018-12-13T23:19:26.854Z,2.33
2018-12-13T23:21:56.113Z,1.99
2018-12-13T23:24:25.517Z,2.18
2018-12-13T23:26:55.271Z,2.10
2018-12-13T23:29:24.834Z,2.00
2018-12-13T23:31:54.403Z,1.93
2018-12-13T23:34:24.104Z,2.05
2018-12-13T23:36:54.362Z,1.96
2018-12-13T23:39:23.757Z,2.21
2018-12-13T23:41:53.154Z,2.46
2018-12-13T23:44:22.696Z,2.51
2018-12-13T23:46:52.403Z,2.60
2018-12-13T23:49:22.174Z,2.46
2018-12-13T23:51:51.728Z,2.29
2018-12-13T23:54:21.009Z,2.23
2018-12-13T23:56:50.683Z,2.14
2018-12-13T23:59:20.150Z,2.45
